Bookmark and Share
Track history (hours):
 

Zealand Delilah

Last reported at 2014-Mar-20 13:21 UTC. Time now 2014-Apr-19 17:15 UTC.
Position N 35°59' W 005°31'.
Warning: this ship's position is 30 days out of date.

Length 135 m; draft 8 m.

Type: Ship. MMSI: 245935000.

NotesDate/timePositionNaut miles runAvg speedWind from/ knotsBaromVisibWave heightAir tempDewpointWater temp
2014-Mar-20 13:21N 35°59' W 005°31'7 8.4
2014-Mar-20 12:34N 35°60' W 005°23'7 6.6
2014-Mar-20 11:33N 35°54' W 005°19'0 0.1
2014-Mar-20 10:33N 35°54' W 005°19'0 0.0
2014-Mar-20 09:33N 35°54' W 005°19'0 0.0
2014-Mar-20 08:33N 35°54' W 005°19'0 0.0
2014-Mar-20 07:33N 35°54' W 005°19'0 0.1
2014-Mar-20 06:33N 35°54' W 005°19'4 3.6
2014-Mar-20 05:33N 35°55' W 005°15'8 7.8
2014-Mar-20 04:33N 35°56' W 005°05'215 8.5
2014-Mar-19 03:24N 36°31' W 000°42'8 9.6
2014-Mar-19 02:33N 36°33' W 000°33'2110.3
2014-Mar-19 00:32N 36°40' W 000°08'1010.2
2014-Mar-18 23:32N 36°43' E 000°04'1010.4
2014-Mar-18 22:33N 36°46' E 000°16'1010.3
2014-Mar-18 21:33N 36°50' E 000°28'1010.1
2014-Mar-18 20:33N 36°52' E 000°41'1110.9
2014-Mar-18 19:33N 36°54' E 000°54'1111.5
2014-Mar-18 18:33N 36°58' E 001°08'1212.0
2014-Mar-18 17:33N 37°01' E 001°22'1212.1
2014-Mar-18 16:33N 37°05' E 001°36'1212.2
2014-Mar-18 15:33N 37°08' E 001°51'1212.3
2014-Mar-18 14:33N 37°12' E 002°06'1212.3
2014-Mar-18 13:33N 37°16' E 002°21'1212.1
2014-Mar-18 12:33N 37°19' E 002°35'1212.2
2014-Mar-18 11:33N 37°23' E 002°50'1312.2
2014-Mar-18 10:30N 37°27' E 003°05'1411.6
2014-Mar-18 09:20N 37°30' E 003°22'48711.1
2014-Mar-16 13:20N 36°49' E 013°30'810.7
2014-Mar-16 12:33N 36°46' E 013°40'1110.9
2014-Mar-16 11:33N 36°42' E 013°53'1110.8
2014-Mar-16 10:33N 36°39' E 014°06'1211.6
2014-Mar-16 09:33N 36°35' E 014°19'1211.8
2014-Mar-16 08:33N 36°30' E 014°33'  

Dump ship's entire track history

sailing weather and tide predictions

Zealand Delilah — PBZI — position and weather